Sealand Guayaquil — A8QP3 — position and weather

sailwx.info

Track history (hours):
 
Tides and Currents Weather Stations Pressure Air Temp Water Temp Dewpoint Dewpoint Depression Visibility Wind Speed Wind Dir Waves Ship Positions

Sealand Guayaquil

Last reported at 2018-Jan-19 07:14 UTC. Time now 2018-Feb-21 07:14 UTC.
Position N 31°39' W 116°48'.
Warning: this ship's position is 32 days out of date.

Length 209 m; draft 8.2 m.

Type: Cargo ship. MMSI: 636091626.

Date/timePositionNaut miles runAvg speedWind from/ knotsBaromVisibWave heightAir tempDewpointWater temp
2018-Jan-19 07:14N 31°39' W 116°48'312.8
2018-Jan-19 06:58N 31°42' W 116°48'47 4.4
2018-Jan-18 20:12N 32°19' W 117°22'416.5
2018-Jan-18 20:00N 32°22' W 117°25'812.8
2018-Jan-18 19:22N 32°27' W 117°32'411.2
2018-Jan-18 19:01N 32°30' W 117°36'610.9
2018-Jan-18 18:26N 32°34' W 117°41'510.9
2018-Jan-18 18:00N 32°37' W 117°45'713.5
2018-Jan-18 17:30N 32°43' W 117°49'1116.0
2018-Jan-18 16:49N 32°53' W 117°53'516.3
2018-Jan-18 16:30N 32°58' W 117°56'1016.4
2018-Jan-18 15:54N 33°07' W 118°00'2014.1
2018-Jan-18 14:28N 33°26' W 118°09'611.8
2018-Jan-18 14:00N 33°31' W 118°12'611.9
2018-Jan-18 13:30N 33°37' W 118°14'  
Track history (hours):
 
Tides and Currents Weather Stations Pressure Air Temp Water Temp Dewpoint Dewpoint Depression Visibility Wind Speed Wind Dir Waves Ship Positions

Sealand Guayaquil

Last reported at 2018-Jan-19 07:14 UTC. Time now 2018-Feb-21 07:14 UTC.
Position N 31°39' W 116°48'.
Warning: this ship's position is 32 days out of date.

Length 209 m; draft 8.2 m.

Type: Cargo ship. MMSI: 636091626.

Date/timePositionNaut miles runAvg speedWind from/ knotsBaromVisibWave heightAir tempDewpointWater temp
2018-Jan-19 07:14N 31°39' W 116°48'312.8
2018-Jan-19 06:58N 31°42' W 116°48'47 4.4
2018-Jan-18 20:12N 32°19' W 117°22'416.5
2018-Jan-18 20:00N 32°22' W 117°25'812.8
2018-Jan-18 19:22N 32°27' W 117°32'411.2
2018-Jan-18 19:01N 32°30' W 117°36'610.9
2018-Jan-18 18:26N 32°34' W 117°41'510.9
2018-Jan-18 18:00N 32°37' W 117°45'713.5
2018-Jan-18 17:30N 32°43' W 117°49'1116.0
2018-Jan-18 16:49N 32°53' W 117°53'516.3
2018-Jan-18 16:30N 32°58' W 117°56'1016.4
2018-Jan-18 15:54N 33°07' W 118°00'2014.1
2018-Jan-18 14:28N 33°26' W 118°09'611.8
2018-Jan-18 14:00N 33°31' W 118°12'611.9
2018-Jan-18 13:30N 33°37' W 118°14'  

Dump ship's entire track history